MDT,Max TemperatureF,Mean TemperatureF,Min TemperatureF,Max Dew PointF,MeanDew PointF,Min DewpointF,Max Humidity, Mean Humidity, Min Humidity, Max Sea Level PressureIn, Mean Sea Level PressureIn, Min Sea Level PressureIn, Max VisibilityMiles, Mean VisibilityMiles, Min VisibilityMiles, Max Wind SpeedMPH, Mean Wind SpeedMPH, Max Gust SpeedMPH,PrecipitationIn, CloudCover, Events, WindDirDegrees
2012-9-1,97,79,60,35,33,30,36,24,11,29.96,29.88,29.80,10,10,10,26,15,39,0.00,0,,175
2012-9-2,92,77,61,58,47,34,66,42,17,30.17,29.94,29.82,10,10,8,30,11,38,0.03,2,Rain-Thunderstorm,313
2012-9-3,93,78,63,58,44,29,78,45,11,29.99,29.92,29.86,10,10,10,23,10,29,0.00,1,,277
2012-9-4,93,76,59,48,32,17,64,36,7,30.01,29.87,29.79,10,10,10,25,13,33,0.00,0,,263
2012-9-5,83,67,50,34,29,21,41,28,14,30.08,29.97,29.84,10,10,10,20,12,24,0.00,0,,102
2012-9-6,93,77,61,44,29,13,48,27,6,29.93,29.85,29.77,10,10,10,31,14,40,0.00,0,,272
2012-9-7,70,60,50,45,41,37,64,51,37,30.28,30.13,29.88,10,10,10,25,15,33,T,3,,13
2012-9-8,81,63,45,42,35,26,71,44,16,30.30,30.22,30.12,10,10,10,15,5,20,0.00,0,,285
2012-9-9,87,66,45,32,29,24,46,29,11,30.19,30.07,29.92,10,10,10,23,11,29,0.00,0,,166
2012-9-10,94,78,61,35,26,20,32,20,7,29.89,29.80,29.73,10,10,10,22,14,29,0.05,0,,199
2012-9-11,93,76,59,42,35,27,43,29,15,29.87,29.75,29.68,10,10,10,32,11,41,T,0,,335
2012-9-12,64,56,47,49,45,32,93,64,34,30.42,30.25,29.88,10,7,2,24,11,30,0.51,8,Rain,29
2012-9-13,69,59,49,49,46,38,100,66,32,30.50,30.40,30.33,10,9,6,14,3,17,0.00,5,,219
2012-9-14,77,63,48,44,38,29,80,49,18,30.38,30.29,30.18,10,10,10,15,10,17,0.00,0,,212
2012-9-15,85,69,52,39,31,20,59,35,10,30.16,30.04,29.93,10,10,10,21,11,26,0.00,0,,205
2012-9-16,88,72,55,38,27,17,47,27,7,30.07,29.91,29.80,10,9,4,30,13,35,0.00,1,,300
2012-9-17,65,57,48,39,37,35,71,53,34,30.14,30.08,29.98,10,10,10,26,12,31,0.00,1,,36
2012-9-18,80,64,47,42,35,30,71,44,16,30.12,30.02,29.94,10,10,10,22,12,26,0.00,0,,261
2012-9-19,81,67,53,33,30,27,43,29,15,30.05,29.98,29.89,10,10,9,25,13,35,0.00,0,,297
2012-9-20,80,66,52,33,29,26,44,30,15,30.04,30.00,29.96,10,10,7,22,10,29,0.00,0,,295
2012-9-21,80,65,49,33,30,29,46,31,15,30.09,30.04,29.98,10,10,10,20,8,30,0.00,0,,324
2012-9-22,76,60,43,32,31,30,58,39,19,30.25,30.16,30.10,10,10,10,20,11,25,0.00,0,,124
2012-9-23,80,66,51,37,34,30,48,34,20,30.11,30.04,29.96,10,10,10,23,15,29,0.00,0,,165
2012-9-24,82,68,54,45,37,35,52,36,20,30.00,29.88,29.79,10,10,10,24,11,30,0.00,2,,279
2012-9-25,78,64,50,51,45,40,86,58,29,30.03,29.86,29.79,10,10,10,26,11,31,T,2,Rain,30
2012-9-26,70,61,52,54,50,43,96,68,39,30.11,30.03,29.93,10,10,4,22,8,26,0.13,6,Rain,149
2012-9-27,62,53,44,54,51,45,96,84,72,30.23,30.15,30.06,10,10,2,22,9,26,0.08,6,Rain-Thunderstorm,138
2012-9-28,70,57,43,52,47,43,100,71,42,30.23,30.15,30.06,10,6,0,15,5,21,0.00,3,Fog,161
2012-9-29,78,63,47,54,49,44,100,66,31,30.18,30.09,29.95,10,5,0,16,10,20,0.02,2,Fog,169
2012-9-30,80,66,51,53,40,34,93,56,19,30.03,29.98,29.93,10,10,10,29,14,35,T,1,,328